sensor_id;sensor_type;location;lat;lon;timestamp;P1;durP1;ratioP1;P2;durP2;ratioP2
72427;SDS011;60419;48.880;18.036;2022-09-12T00:01:50;7.72;;;5.72;;
72427;SDS011;60419;48.880;18.036;2022-09-12T00:04:36;7.95;;;5.93;;
72427;SDS011;60419;48.880;18.036;2022-09-12T00:07:21;8.05;;;6.20;;
72427;SDS011;60419;48.880;18.036;2022-09-12T00:10:07;9.13;;;6.32;;
72427;SDS011;60419;48.880;18.036;2022-09-12T00:12:52;8.32;;;5.97;;
72427;SDS011;60419;48.880;18.036;2022-09-12T00:15:38;8.73;;;5.68;;
72427;SDS011;60419;48.880;18.036;2022-09-12T00:18:25;7.70;;;5.90;;
72427;SDS011;60419;48.880;18.036;2022-09-12T00:21:11;10.68;;;5.78;;
72427;SDS011;60419;48.880;18.036;2022-09-12T00:23:56;8.57;;;5.65;;
72427;SDS011;60419;48.880;18.036;2022-09-12T00:26:42;9.20;;;5.70;;
72427;SDS011;60419;48.880;18.036;2022-09-12T00:29:27;10.90;;;5.80;;
72427;SDS011;60419;48.880;18.036;2022-09-12T00:32:13;8.57;;;6.20;;
72427;SDS011;60419;48.880;18.036;2022-09-12T00:34:58;9.20;;;5.80;;
72427;SDS011;60419;48.880;18.036;2022-09-12T00:37:43;8.48;;;5.43;;
72427;SDS011;60419;48.880;18.036;2022-09-12T00:40:29;9.20;;;5.43;;
72427;SDS011;60419;48.880;18.036;2022-09-12T00:46:24;7.50;;;5.38;;
72427;SDS011;60419;48.880;18.036;2022-09-12T00:49:27;9.25;;;5.97;;
72427;SDS011;60419;48.880;18.036;2022-09-12T00:52:23;9.23;;;5.88;;
72427;SDS011;60419;48.880;18.036;2022-09-12T01:01:08;9.98;;;6.38;;
72427;SDS011;60419;48.880;18.036;2022-09-12T01:03:54;8.95;;;6.90;;
72427;SDS011;60419;48.880;18.036;2022-09-12T01:06:40;9.77;;;7.00;;
72427;SDS011;60419;48.880;18.036;2022-09-12T01:09:27;9.13;;;6.75;;
72427;SDS011;60419;48.880;18.036;2022-09-12T01:12:13;8.00;;;5.40;;
72427;SDS011;60419;48.880;18.036;2022-09-12T01:14:59;10.30;;;5.75;;
72427;SDS011;60419;48.880;18.036;2022-09-12T01:35:45;8.20;;;5.50;;
72427;SDS011;60419;48.880;18.036;2022-09-12T01:44:55;6.95;;;4.95;;
72427;SDS011;60419;48.880;18.036;2022-09-12T01:47:55;8.40;;;5.00;;
72427;SDS011;60419;48.880;18.036;2022-09-12T01:51:16;9.25;;;5.47;;
72427;SDS011;60419;48.880;18.036;2022-09-12T01:54:07;8.55;;;5.72;;
72427;SDS011;60419;48.880;18.036;2022-09-12T01:56:59;15.57;;;5.82;;
72427;SDS011;60419;48.880;18.036;2022-09-12T01:59:48;7.50;;;5.22;;
72427;SDS011;60419;48.880;18.036;2022-09-12T02:02:38;8.27;;;6.17;;
72427;SDS011;60419;48.880;18.036;2022-09-12T02:05:54;8.73;;;5.90;;
72427;SDS011;60419;48.880;18.036;2022-09-12T02:08:45;8.75;;;5.78;;
72427;SDS011;60419;48.880;18.036;2022-09-12T02:11:37;7.70;;;5.45;;
72427;SDS011;60419;48.880;18.036;2022-09-12T02:14:28;10.43;;;5.65;;
72427;SDS011;60419;48.880;18.036;2022-09-12T02:17:18;11.15;;;6.07;;
72427;SDS011;60419;48.880;18.036;2022-09-12T02:20:26;9.75;;;5.68;;
72427;SDS011;60419;48.880;18.036;2022-09-12T02:23:16;9.57;;;5.85;;
72427;SDS011;60419;48.880;18.036;2022-09-12T02:26:09;8.82;;;5.80;;
72427;SDS011;60419;48.880;18.036;2022-09-12T02:28:58;8.02;;;5.60;;
72427;SDS011;60419;48.880;18.036;2022-09-12T02:34:41;9.10;;;6.10;;
72427;SDS011;60419;48.880;18.036;2022-09-12T02:40:22;10.45;;;6.25;;
72427;SDS011;60419;48.880;18.036;2022-09-12T02:43:08;9.35;;;5.65;;
72427;SDS011;60419;48.880;18.036;2022-09-12T02:45:53;10.00;;;6.15;;
72427;SDS011;60419;48.880;18.036;2022-09-12T02:48:39;9.00;;;6.10;;
72427;SDS011;60419;48.880;18.036;2022-09-12T02:51:27;8.80;;;5.45;;
72427;SDS011;60419;48.880;18.036;2022-09-12T02:54:13;9.13;;;5.47;;
72427;SDS011;60419;48.880;18.036;2022-09-12T02:57:01;9.77;;;6.15;;
72427;SDS011;60419;48.880;18.036;2022-09-12T02:59:46;8.82;;;6.28;;
72427;SDS011;60419;48.880;18.036;2022-09-12T03:02:45;12.27;;;6.00;;
72427;SDS011;60419;48.880;18.036;2022-09-12T03:05:57;9.73;;;5.70;;
72427;SDS011;60419;48.880;18.036;2022-09-12T03:21:16;8.60;;;5.78;;
72427;SDS011;60419;48.880;18.036;2022-09-12T03:24:27;7.78;;;5.50;;
72427;SDS011;60419;48.880;18.036;2022-09-12T03:27:21;10.90;;;6.32;;
72427;SDS011;60419;48.880;18.036;2022-09-12T03:30:13;9.93;;;6.80;;
72427;SDS011;60419;48.880;18.036;2022-09-12T03:32:58;8.13;;;5.88;;
72427;SDS011;60419;48.880;18.036;2022-09-12T03:35:44;8.75;;;5.70;;
72427;SDS011;60419;48.880;18.036;2022-09-12T03:38:31;7.13;;;5.65;;
72427;SDS011;60419;48.880;18.036;2022-09-12T03:41:16;8.98;;;6.00;;
72427;SDS011;60419;48.880;18.036;2022-09-12T03:44:02;9.30;;;6.35;;
72427;SDS011;60419;48.880;18.036;2022-09-12T03:46:48;9.63;;;5.35;;
72427;SDS011;60419;48.880;18.036;2022-09-12T03:49:34;7.28;;;5.28;;
72427;SDS011;60419;48.880;18.036;2022-09-12T03:52:19;7.30;;;5.35;;
72427;SDS011;60419;48.880;18.036;2022-09-12T03:55:05;8.98;;;5.38;;
72427;SDS011;60419;48.880;18.036;2022-09-12T03:57:53;8.00;;;4.90;;
72427;SDS011;60419;48.880;18.036;2022-09-12T04:00:39;7.97;;;5.13;;
72427;SDS011;60419;48.880;18.036;2022-09-12T04:03:26;8.60;;;4.95;;
72427;SDS011;60419;48.880;18.036;2022-09-12T04:06:13;7.50;;;5.55;;
72427;SDS011;60419;48.880;18.036;2022-09-12T04:09:00;8.65;;;5.88;;
72427;SDS011;60419;48.880;18.036;2022-09-12T04:11:45;8.88;;;5.00;;
72427;SDS011;60419;48.880;18.036;2022-09-12T04:14:31;8.93;;;5.72;;
72427;SDS011;60419;48.880;18.036;2022-09-12T04:17:16;7.05;;;4.75;;
72427;SDS011;60419;48.880;18.036;2022-09-12T04:20:02;8.23;;;4.47;;
72427;SDS011;60419;48.880;18.036;2022-09-12T04:22:47;11.32;;;5.28;;
72427;SDS011;60419;48.880;18.036;2022-09-12T04:25:33;6.32;;;4.25;;
72427;SDS011;60419;48.880;18.036;2022-09-12T04:28:18;9.23;;;5.35;;
72427;SDS011;60419;48.880;18.036;2022-09-12T04:31:05;8.55;;;5.63;;
72427;SDS011;60419;48.880;18.036;2022-09-12T04:33:53;7.63;;;5.13;;
72427;SDS011;60419;48.880;18.036;2022-09-12T04:36:40;7.88;;;5.30;;
72427;SDS011;60419;48.880;18.036;2022-09-12T04:39:26;6.57;;;4.75;;
72427;SDS011;60419;48.880;18.036;2022-09-12T04:42:11;7.43;;;4.80;;
72427;SDS011;60419;48.880;18.036;2022-09-12T04:44:56;7.85;;;5.03;;
72427;SDS011;60419;48.880;18.036;2022-09-12T04:47:42;8.77;;;5.65;;
72427;SDS011;60419;48.880;18.036;2022-09-12T04:50:27;9.00;;;5.55;;
72427;SDS011;60419;48.880;18.036;2022-09-12T04:53:12;9.82;;;6.28;;
72427;SDS011;60419;48.880;18.036;2022-09-12T04:56:04;11.32;;;6.18;;
72427;SDS011;60419;48.880;18.036;2022-09-12T04:58:51;9.07;;;6.03;;
72427;SDS011;60419;48.880;18.036;2022-09-12T05:01:37;9.02;;;5.20;;
72427;SDS011;60419;48.880;18.036;2022-09-12T05:04:22;7.75;;;5.15;;
72427;SDS011;60419;48.880;18.036;2022-09-12T05:07:08;9.35;;;5.32;;
72427;SDS011;60419;48.880;18.036;2022-09-12T05:09:53;9.00;;;4.72;;
72427;SDS011;60419;48.880;18.036;2022-09-12T05:12:39;13.98;;;5.45;;
72427;SDS011;60419;48.880;18.036;2022-09-12T05:15:24;6.68;;;4.70;;
72427;SDS011;60419;48.880;18.036;2022-09-12T05:18:10;9.20;;;5.18;;
72427;SDS011;60419;48.880;18.036;2022-09-12T05:20:55;7.20;;;5.07;;
72427;SDS011;60419;48.880;18.036;2022-09-12T05:23:43;8.02;;;5.47;;
72427;SDS011;60419;48.880;18.036;2022-09-12T05:26:28;8.05;;;5.25;;
72427;SDS011;60419;48.880;18.036;2022-09-12T05:29:14;7.75;;;5.15;;
72427;SDS011;60419;48.880;18.036;2022-09-12T05:31:59;10.32;;;5.38;;
72427;SDS011;60419;48.880;18.036;2022-09-12T05:34:45;8.55;;;5.70;;
72427;SDS011;60419;48.880;18.036;2022-09-12T05:37:30;8.23;;;5.30;;
72427;SDS011;60419;48.880;18.036;2022-09-12T05:40:15;7.28;;;4.88;;
72427;SDS011;60419;48.880;18.036;2022-09-12T05:43:03;9.02;;;4.85;;
72427;SDS011;60419;48.880;18.036;2022-09-12T05:45:48;9.25;;;5.32;;
72427;SDS011;60419;48.880;18.036;2022-09-12T05:48:35;8.43;;;5.10;;
72427;SDS011;60419;48.880;18.036;2022-09-12T05:51:25;9.70;;;5.20;;
72427;SDS011;60419;48.880;18.036;2022-09-12T05:54:17;7.30;;;4.95;;
72427;SDS011;60419;48.880;18.036;2022-09-12T05:57:04;9.73;;;5.47;;
72427;SDS011;60419;48.880;18.036;2022-09-12T05:59:49;12.00;;;5.50;;
72427;SDS011;60419;48.880;18.036;2022-09-12T06:02:35;10.13;;;5.13;;
72427;SDS011;60419;48.880;18.036;2022-09-12T06:05:20;10.43;;;5.53;;
72427;SDS011;60419;48.880;18.036;2022-09-12T06:08:05;9.15;;;5.13;;
72427;SDS011;60419;48.880;18.036;2022-09-12T06:10:51;7.35;;;4.95;;
72427;SDS011;60419;48.880;18.036;2022-09-12T06:13:43;9.80;;;5.28;;
72427;SDS011;60419;48.880;18.036;2022-09-12T06:16:29;8.80;;;5.70;;
72427;SDS011;60419;48.880;18.036;2022-09-12T06:19:18;14.07;;;6.03;;
72427;SDS011;60419;48.880;18.036;2022-09-12T06:22:05;8.98;;;5.95;;
72427;SDS011;60419;48.880;18.036;2022-09-12T06:24:50;8.15;;;5.85;;
72427;SDS011;60419;48.880;18.036;2022-09-12T06:27:36;8.38;;;5.85;;
72427;SDS011;60419;48.880;18.036;2022-09-12T06:30:21;8.70;;;5.38;;
72427;SDS011;60419;48.880;18.036;2022-09-12T06:33:06;8.70;;;5.60;;
72427;SDS011;60419;48.880;18.036;2022-09-12T06:35:52;9.00;;;5.72;;
72427;SDS011;60419;48.880;18.036;2022-09-12T06:38:37;10.45;;;5.65;;
72427;SDS011;60419;48.880;18.036;2022-09-12T06:41:24;9.10;;;5.30;;
72427;SDS011;60419;48.880;18.036;2022-09-12T06:44:19;9.57;;;5.43;;
72427;SDS011;60419;48.880;18.036;2022-09-12T06:47:06;8.73;;;5.40;;
72427;SDS011;60419;48.880;18.036;2022-09-12T06:49:51;8.40;;;5.85;;
72427;SDS011;60419;48.880;18.036;2022-09-12T06:52:37;7.90;;;5.70;;
72427;SDS011;60419;48.880;18.036;2022-09-12T06:55:22;8.00;;;5.88;;
72427;SDS011;60419;48.880;18.036;2022-09-12T06:58:08;9.88;;;5.53;;
72427;SDS011;60419;48.880;18.036;2022-09-12T07:01:00;10.40;;;5.40;;
72427;SDS011;60419;48.880;18.036;2022-09-12T07:04:04;7.53;;;4.60;;
72427;SDS011;60419;48.880;18.036;2022-09-12T07:06:50;9.15;;;5.60;;
72427;SDS011;60419;48.880;18.036;2022-09-12T07:09:35;8.77;;;5.47;;
72427;SDS011;60419;48.880;18.036;2022-09-12T07:12:21;7.55;;;4.60;;
72427;SDS011;60419;48.880;18.036;2022-09-12T07:15:06;9.23;;;5.03;;
72427;SDS011;60419;48.880;18.036;2022-09-12T07:17:52;5.45;;;3.40;;
72427;SDS011;60419;48.880;18.036;2022-09-12T07:20:38;4.25;;;3.15;;
72427;SDS011;60419;48.880;18.036;2022-09-12T07:23:23;5.45;;;3.17;;
72427;SDS011;60419;48.880;18.036;2022-09-12T07:26:09;4.82;;;2.92;;
72427;SDS011;60419;48.880;18.036;2022-09-12T07:28:56;5.18;;;2.88;;
72427;SDS011;60419;48.880;18.036;2022-09-12T07:31:43;3.70;;;2.50;;
72427;SDS011;60419;48.880;18.036;2022-09-12T07:34:29;4.05;;;2.42;;
72427;SDS011;60419;48.880;18.036;2022-09-12T07:37:15;4.35;;;2.75;;
72427;SDS011;60419;48.880;18.036;2022-09-12T07:40:00;3.92;;;2.40;;
72427;SDS011;60419;48.880;18.036;2022-09-12T07:42:46;3.60;;;2.22;;
72427;SDS011;60419;48.880;18.036;2022-09-12T07:45:31;3.45;;;2.42;;
72427;SDS011;60419;48.880;18.036;2022-09-12T07:48:17;3.78;;;2.20;;
72427;SDS011;60419;48.880;18.036;2022-09-12T07:51:04;6.18;;;2.53;;
72427;SDS011;60419;48.880;18.036;2022-09-12T07:53:51;3.40;;;2.33;;
72427;SDS011;60419;48.880;18.036;2022-09-12T07:56:37;4.43;;;2.45;;
72427;SDS011;60419;48.880;18.036;2022-09-12T07:59:22;4.72;;;2.38;;
72427;SDS011;60419;48.880;18.036;2022-09-12T08:02:10;5.55;;;2.60;;
72427;SDS011;60419;48.880;18.036;2022-09-12T08:04:57;4.17;;;2.17;;
72427;SDS011;60419;48.880;18.036;2022-09-12T08:07:43;3.45;;;2.20;;
72427;SDS011;60419;48.880;18.036;2022-09-12T08:10:29;3.80;;;2.47;;
72427;SDS011;60419;48.880;18.036;2022-09-12T08:13:14;5.65;;;2.58;;
72427;SDS011;60419;48.880;18.036;2022-09-12T08:16:02;3.90;;;2.50;;
72427;SDS011;60419;48.880;18.036;2022-09-12T08:18:49;4.57;;;2.83;;
72427;SDS011;60419;48.880;18.036;2022-09-12T08:21:35;5.15;;;2.45;;
72427;SDS011;60419;48.880;18.036;2022-09-12T08:24:21;5.63;;;2.35;;
72427;SDS011;60419;48.880;18.036;2022-09-12T08:27:06;5.90;;;2.60;;
72427;SDS011;60419;48.880;18.036;2022-09-12T08:29:52;4.03;;;2.38;;
72427;SDS011;60419;48.880;18.036;2022-09-12T08:32:37;4.38;;;2.20;;
72427;SDS011;60419;48.880;18.036;2022-09-12T08:35:23;4.85;;;2.30;;
72427;SDS011;60419;48.880;18.036;2022-09-12T08:38:08;3.88;;;2.40;;
72427;SDS011;60419;48.880;18.036;2022-09-12T08:40:56;4.88;;;2.25;;
72427;SDS011;60419;48.880;18.036;2022-09-12T08:43:52;4.22;;;2.83;;
72427;SDS011;60419;48.880;18.036;2022-09-12T08:52:59;5.55;;;2.33;;
72427;SDS011;60419;48.880;18.036;2022-09-12T08:55:52;3.72;;;2.33;;
72427;SDS011;60419;48.880;18.036;2022-09-12T08:58:43;3.92;;;2.40;;
72427;SDS011;60419;48.880;18.036;2022-09-12T09:01:30;5.50;;;2.92;;
72427;SDS011;60419;48.880;18.036;2022-09-12T09:07:17;5.82;;;2.60;;
72427;SDS011;60419;48.880;18.036;2022-09-12T09:13:48;5.00;;;2.58;;
72427;SDS011;60419;48.880;18.036;2022-09-12T09:16:42;4.90;;;3.00;;
72427;SDS011;60419;48.880;18.036;2022-09-12T09:19:35;4.20;;;3.00;;
72427;SDS011;60419;48.880;18.036;2022-09-12T09:22:28;5.18;;;3.25;;
72427;SDS011;60419;48.880;18.036;2022-09-12T09:25:24;6.20;;;3.00;;
72427;SDS011;60419;48.880;18.036;2022-09-12T09:31:18;4.63;;;2.70;;
72427;SDS011;60419;48.880;18.036;2022-09-12T09:34:14;5.38;;;3.03;;
72427;SDS011;60419;48.880;18.036;2022-09-12T09:37:11;4.13;;;2.70;;
72427;SDS011;60419;48.880;18.036;2022-09-12T09:43:12;5.80;;;2.47;;
72427;SDS011;60419;48.880;18.036;2022-09-12T09:46:04;3.97;;;2.38;;
72427;SDS011;60419;48.880;18.036;2022-09-12T09:48:50;3.60;;;2.20;;
72427;SDS011;60419;48.880;18.036;2022-09-12T09:51:38;3.45;;;2.15;;
72427;SDS011;60419;48.880;18.036;2022-09-12T09:54:27;4.63;;;2.22;;
72427;SDS011;60419;48.880;18.036;2022-09-12T09:57:40;3.70;;;2.22;;
72427;SDS011;60419;48.880;18.036;2022-09-12T10:03:29;3.42;;;2.30;;
72427;SDS011;60419;48.880;18.036;2022-09-12T10:06:22;3.70;;;2.17;;
72427;SDS011;60419;48.880;18.036;2022-09-12T10:11:59;3.50;;;2.17;;
72427;SDS011;60419;48.880;18.036;2022-09-12T10:15:15;4.90;;;2.40;;
72427;SDS011;60419;48.880;18.036;2022-09-12T10:18:02;4.47;;;2.22;;
72427;SDS011;60419;48.880;18.036;2022-09-12T10:20:48;3.83;;;2.10;;
72427;SDS011;60419;48.880;18.036;2022-09-12T10:23:34;4.55;;;2.47;;
72427;SDS011;60419;48.880;18.036;2022-09-12T10:26:21;3.25;;;1.90;;
72427;SDS011;60419;48.880;18.036;2022-09-12T10:29:13;5.30;;;2.05;;
72427;SDS011;60419;48.880;18.036;2022-09-12T10:32:03;6.40;;;2.55;;
72427;SDS011;60419;48.880;18.036;2022-09-12T10:34:52;5.15;;;1.85;;
72427;SDS011;60419;48.880;18.036;2022-09-12T10:37:40;4.38;;;2.10;;
72427;SDS011;60419;48.880;18.036;2022-09-12T10:40:41;2.60;;;1.85;;
72427;SDS011;60419;48.880;18.036;2022-09-12T10:43:29;6.40;;;2.25;;
72427;SDS011;60419;48.880;18.036;2022-09-12T10:49:11;3.70;;;2.08;;
72427;SDS011;60419;48.880;18.036;2022-09-12T10:52:15;5.07;;;2.42;;
72427;SDS011;60419;48.880;18.036;2022-09-12T10:55:16;3.58;;;1.80;;
72427;SDS011;60419;48.880;18.036;2022-09-12T10:58:05;4.03;;;1.80;;
72427;SDS011;60419;48.880;18.036;2022-09-12T11:01:13;3.60;;;1.90;;
72427;SDS011;60419;48.880;18.036;2022-09-12T11:13:50;4.10;;;2.20;;
72427;SDS011;60419;48.880;18.036;2022-09-12T11:23:05;3.93;;;2.43;;
72427;SDS011;60419;48.880;18.036;2022-09-12T11:26:08;5.03;;;1.88;;
72427;SDS011;60419;48.880;18.036;2022-09-12T11:41:35;3.83;;;1.90;;
72427;SDS011;60419;48.880;18.036;2022-09-12T11:44:45;4.38;;;1.90;;
72427;SDS011;60419;48.880;18.036;2022-09-12T11:47:32;3.63;;;1.70;;
72427;SDS011;60419;48.880;18.036;2022-09-12T11:50:25;5.18;;;1.90;;
72427;SDS011;60419;48.880;18.036;2022-09-12T11:56:15;3.85;;;1.92;;
72427;SDS011;60419;48.880;18.036;2022-09-12T11:59:03;3.83;;;1.60;;
72427;SDS011;60419;48.880;18.036;2022-09-12T12:01:59;3.78;;;1.60;;
72427;SDS011;60419;48.880;18.036;2022-09-12T12:04:56;3.10;;;1.60;;
72427;SDS011;60419;48.880;18.036;2022-09-12T12:08:05;4.00;;;1.88;;
72427;SDS011;60419;48.880;18.036;2022-09-12T12:10:55;3.67;;;1.80;;
72427;SDS011;60419;48.880;18.036;2022-09-12T12:13:46;2.88;;;1.65;;
72427;SDS011;60419;48.880;18.036;2022-09-12T12:17:11;3.67;;;1.90;;
72427;SDS011;60419;48.880;18.036;2022-09-12T12:20:00;5.50;;;1.70;;
72427;SDS011;60419;48.880;18.036;2022-09-12T12:22:51;3.40;;;1.90;;
72427;SDS011;60419;48.880;18.036;2022-09-12T12:25:49;3.47;;;1.73;;
72427;SDS011;60419;48.880;18.036;2022-09-12T12:31:25;3.70;;;1.75;;
72427;SDS011;60419;48.880;18.036;2022-09-12T12:34:21;4.80;;;1.85;;
72427;SDS011;60419;48.880;18.036;2022-09-12T12:40:21;4.03;;;2.00;;
72427;SDS011;60419;48.880;18.036;2022-09-12T12:43:27;4.82;;;1.80;;
72427;SDS011;60419;48.880;18.036;2022-09-12T12:46:16;3.15;;;1.70;;
72427;SDS011;60419;48.880;18.036;2022-09-12T12:49:16;3.47;;;1.83;;
72427;SDS011;60419;48.880;18.036;2022-09-12T12:52:14;6.10;;;1.98;;
72427;SDS011;60419;48.880;18.036;2022-09-12T12:55:02;2.92;;;1.45;;
72427;SDS011;60419;48.880;18.036;2022-09-12T12:57:48;3.72;;;1.90;;
72427;SDS011;60419;48.880;18.036;2022-09-12T13:00:37;5.88;;;1.58;;
72427;SDS011;60419;48.880;18.036;2022-09-12T13:03:26;3.33;;;1.50;;
72427;SDS011;60419;48.880;18.036;2022-09-12T13:06:27;5.00;;;1.58;;
72427;SDS011;60419;48.880;18.036;2022-09-12T13:09:24;5.05;;;1.58;;
72427;SDS011;60419;48.880;18.036;2022-09-12T13:12:18;4.45;;;1.75;;
72427;SDS011;60419;48.880;18.036;2022-09-12T13:18:24;6.38;;;1.80;;
72427;SDS011;60419;48.880;18.036;2022-09-12T13:21:19;3.25;;;1.65;;
72427;SDS011;60419;48.880;18.036;2022-09-12T13:24:14;3.55;;;1.50;;
72427;SDS011;60419;48.880;18.036;2022-09-12T13:27:01;3.80;;;1.55;;
72427;SDS011;60419;48.880;18.036;2022-09-12T13:29:47;4.05;;;1.50;;
72427;SDS011;60419;48.880;18.036;2022-09-12T13:32:32;5.28;;;1.92;;
72427;SDS011;60419;48.880;18.036;2022-09-12T13:48:00;2.30;;;1.30;;
72427;SDS011;60419;48.880;18.036;2022-09-12T13:53:42;4.28;;;1.60;;
72427;SDS011;60419;48.880;18.036;2022-09-12T13:56:31;2.38;;;1.20;;
72427;SDS011;60419;48.880;18.036;2022-09-12T13:59:16;3.20;;;1.30;;
72427;SDS011;60419;48.880;18.036;2022-09-12T14:02:01;3.00;;;1.42;;
72427;SDS011;60419;48.880;18.036;2022-09-12T14:05:00;2.15;;;1.25;;
72427;SDS011;60419;48.880;18.036;2022-09-12T14:08:05;4.07;;;1.20;;
72427;SDS011;60419;48.880;18.036;2022-09-12T14:10:53;2.28;;;1.33;;
72427;SDS011;60419;48.880;18.036;2022-09-12T14:13:38;4.53;;;1.50;;
72427;SDS011;60419;48.880;18.036;2022-09-12T14:16:24;3.03;;;1.40;;
72427;SDS011;60419;48.880;18.036;2022-09-12T14:19:12;2.60;;;1.33;;
72427;SDS011;60419;48.880;18.036;2022-09-12T14:22:00;2.55;;;1.40;;
72427;SDS011;60419;48.880;18.036;2022-09-12T14:24:46;2.38;;;1.30;;
72427;SDS011;60419;48.880;18.036;2022-09-12T14:27:38;4.13;;;1.60;;
72427;SDS011;60419;48.880;18.036;2022-09-12T14:30:30;7.85;;;1.30;;
72427;SDS011;60419;48.880;18.036;2022-09-12T14:33:18;1.85;;;1.20;;
72427;SDS011;60419;48.880;18.036;2022-09-12T14:36:14;2.33;;;1.15;;
72427;SDS011;60419;48.880;18.036;2022-09-12T14:39:05;4.60;;;1.30;;
72427;SDS011;60419;48.880;18.036;2022-09-12T14:42:03;2.95;;;1.30;;
72427;SDS011;60419;48.880;18.036;2022-09-12T14:44:56;2.55;;;1.40;;
72427;SDS011;60419;48.880;18.036;2022-09-12T14:47:47;2.42;;;1.33;;
72427;SDS011;60419;48.880;18.036;2022-09-12T14:50:34;2.10;;;1.30;;
72427;SDS011;60419;48.880;18.036;2022-09-12T14:53:22;1.63;;;1.10;;
72427;SDS011;60419;48.880;18.036;2022-09-12T14:56:10;2.70;;;1.50;;
72427;SDS011;60419;48.880;18.036;2022-09-12T14:59:18;3.22;;;1.40;;
72427;SDS011;60419;48.880;18.036;2022-09-12T15:08:00;3.08;;;1.30;;
72427;SDS011;60419;48.880;18.036;2022-09-12T15:10:46;3.60;;;1.63;;
72427;SDS011;60419;48.880;18.036;2022-09-12T15:13:37;3.10;;;1.30;;
72427;SDS011;60419;48.880;18.036;2022-09-12T15:16:24;3.88;;;1.33;;
72427;SDS011;60419;48.880;18.036;2022-09-12T15:19:09;3.10;;;1.80;;
72427;SDS011;60419;48.880;18.036;2022-09-12T15:21:56;2.25;;;1.27;;
72427;SDS011;60419;48.880;18.036;2022-09-12T15:24:41;2.10;;;1.00;;
72427;SDS011;60419;48.880;18.036;2022-09-12T15:27:27;5.43;;;1.38;;
72427;SDS011;60419;48.880;18.036;2022-09-12T15:30:12;2.47;;;1.20;;
72427;SDS011;60419;48.880;18.036;2022-09-12T15:32:58;2.28;;;1.10;;
72427;SDS011;60419;48.880;18.036;2022-09-12T15:35:44;3.72;;;1.50;;
72427;SDS011;60419;48.880;18.036;2022-09-12T15:38:30;2.70;;;1.50;;
72427;SDS011;60419;48.880;18.036;2022-09-12T15:44:03;2.75;;;1.45;;
72427;SDS011;60419;48.880;18.036;2022-09-12T15:46:49;3.90;;;1.60;;
72427;SDS011;60419;48.880;18.036;2022-09-12T15:49:35;5.80;;;1.60;;
72427;SDS011;60419;48.880;18.036;2022-09-12T15:52:20;3.65;;;1.70;;
72427;SDS011;60419;48.880;18.036;2022-09-12T15:55:09;2.85;;;1.40;;
72427;SDS011;60419;48.880;18.036;2022-09-12T15:58:00;4.45;;;1.52;;
72427;SDS011;60419;48.880;18.036;2022-09-12T16:00:46;3.38;;;1.42;;
72427;SDS011;60419;48.880;18.036;2022-09-12T16:03:31;2.65;;;1.58;;
72427;SDS011;60419;48.880;18.036;2022-09-12T16:06:17;2.30;;;1.30;;
72427;SDS011;60419;48.880;18.036;2022-09-12T16:09:02;3.67;;;1.50;;
72427;SDS011;60419;48.880;18.036;2022-09-12T16:11:47;3.08;;;1.65;;
72427;SDS011;60419;48.880;18.036;2022-09-12T16:14:34;3.50;;;1.65;;
72427;SDS011;60419;48.880;18.036;2022-09-12T16:17:19;4.65;;;1.60;;
72427;SDS011;60419;48.880;18.036;2022-09-12T16:20:05;3.50;;;1.50;;
72427;SDS011;60419;48.880;18.036;2022-09-12T16:22:51;3.90;;;1.50;;
72427;SDS011;60419;48.880;18.036;2022-09-12T16:25:36;3.30;;;1.50;;
72427;SDS011;60419;48.880;18.036;2022-09-12T16:28:22;4.03;;;1.40;;
72427;SDS011;60419;48.880;18.036;2022-09-12T16:31:09;4.95;;;1.55;;
72427;SDS011;60419;48.880;18.036;2022-09-12T16:33:56;4.70;;;1.50;;
72427;SDS011;60419;48.880;18.036;2022-09-12T16:36:41;5.68;;;1.85;;
72427;SDS011;60419;48.880;18.036;2022-09-12T16:39:29;4.05;;;1.52;;
72427;SDS011;60419;48.880;18.036;2022-09-12T16:42:15;3.30;;;1.50;;
72427;SDS011;60419;48.880;18.036;2022-09-12T16:45:03;3.10;;;1.50;;
72427;SDS011;60419;48.880;18.036;2022-09-12T16:47:48;3.83;;;2.08;;
72427;SDS011;60419;48.880;18.036;2022-09-12T16:50:34;6.45;;;1.77;;
72427;SDS011;60419;48.880;18.036;2022-09-12T16:53:19;3.50;;;1.70;;
72427;SDS011;60419;48.880;18.036;2022-09-12T16:56:05;4.82;;;1.77;;
72427;SDS011;60419;48.880;18.036;2022-09-12T16:58:50;3.85;;;1.83;;
72427;SDS011;60419;48.880;18.036;2022-09-12T17:01:36;4.10;;;1.80;;
72427;SDS011;60419;48.880;18.036;2022-09-12T17:04:22;4.50;;;1.65;;
72427;SDS011;60419;48.880;18.036;2022-09-12T17:07:07;3.47;;;1.70;;
72427;SDS011;60419;48.880;18.036;2022-09-12T17:09:53;4.70;;;1.70;;
72427;SDS011;60419;48.880;18.036;2022-09-12T17:12:38;3.05;;;1.70;;
72427;SDS011;60419;48.880;18.036;2022-09-12T17:15:23;5.07;;;1.70;;
72427;SDS011;60419;48.880;18.036;2022-09-12T17:18:09;4.28;;;1.80;;
72427;SDS011;60419;48.880;18.036;2022-09-12T17:20:54;5.68;;;2.10;;
72427;SDS011;60419;48.880;18.036;2022-09-12T17:23:40;3.95;;;1.60;;
72427;SDS011;60419;48.880;18.036;2022-09-12T17:26:26;4.40;;;2.08;;
72427;SDS011;60419;48.880;18.036;2022-09-12T17:29:11;4.38;;;1.85;;
72427;SDS011;60419;48.880;18.036;2022-09-12T17:32:00;4.38;;;1.77;;
72427;SDS011;60419;48.880;18.036;2022-09-12T17:34:47;3.85;;;1.80;;
72427;SDS011;60419;48.880;18.036;2022-09-12T17:37:33;5.60;;;1.88;;
72427;SDS011;60419;48.880;18.036;2022-09-12T17:40:19;5.00;;;1.75;;
72427;SDS011;60419;48.880;18.036;2022-09-12T17:43:05;4.40;;;1.70;;
72427;SDS011;60419;48.880;18.036;2022-09-12T17:45:56;3.50;;;1.92;;
72427;SDS011;60419;48.880;18.036;2022-09-12T17:48:41;5.65;;;2.08;;
72427;SDS011;60419;48.880;18.036;2022-09-12T17:51:28;6.97;;;2.28;;
72427;SDS011;60419;48.880;18.036;2022-09-12T17:54:16;4.82;;;1.80;;
72427;SDS011;60419;48.880;18.036;2022-09-12T17:57:04;6.72;;;1.75;;
72427;SDS011;60419;48.880;18.036;2022-09-12T17:59:50;5.05;;;1.50;;
72427;SDS011;60419;48.880;18.036;2022-09-12T18:02:35;3.70;;;1.98;;
72427;SDS011;60419;48.880;18.036;2022-09-12T18:05:21;4.00;;;1.80;;
72427;SDS011;60419;48.880;18.036;2022-09-12T18:08:06;4.88;;;2.08;;
72427;SDS011;60419;48.880;18.036;2022-09-12T18:10:51;4.22;;;2.05;;
72427;SDS011;60419;48.880;18.036;2022-09-12T18:13:37;5.28;;;1.85;;
72427;SDS011;60419;48.880;18.036;2022-09-12T18:16:22;4.75;;;2.10;;
72427;SDS011;60419;48.880;18.036;2022-09-12T18:19:08;4.45;;;2.45;;
72427;SDS011;60419;48.880;18.036;2022-09-12T18:21:53;4.53;;;2.30;;
72427;SDS011;60419;48.880;18.036;2022-09-12T18:24:39;3.50;;;2.05;;
72427;SDS011;60419;48.880;18.036;2022-09-12T18:27:25;8.77;;;3.70;;
72427;SDS011;60419;48.880;18.036;2022-09-12T18:30:10;5.32;;;2.90;;
72427;SDS011;60419;48.880;18.036;2022-09-12T18:32:57;5.32;;;2.50;;
72427;SDS011;60419;48.880;18.036;2022-09-12T18:35:43;4.40;;;2.13;;
72427;SDS011;60419;48.880;18.036;2022-09-12T18:38:29;4.65;;;2.10;;
72427;SDS011;60419;48.880;18.036;2022-09-12T18:41:17;2.95;;;1.75;;
72427;SDS011;60419;48.880;18.036;2022-09-12T18:44:04;5.20;;;2.10;;
72427;SDS011;60419;48.880;18.036;2022-09-12T18:46:50;4.50;;;2.10;;
72427;SDS011;60419;48.880;18.036;2022-09-12T18:49:35;3.05;;;1.80;;
72427;SDS011;60419;48.880;18.036;2022-09-12T18:52:21;6.97;;;2.30;;
72427;SDS011;60419;48.880;18.036;2022-09-12T18:55:06;5.85;;;2.50;;
72427;SDS011;60419;48.880;18.036;2022-09-12T18:57:53;4.70;;;2.67;;
72427;SDS011;60419;48.880;18.036;2022-09-12T19:00:39;4.50;;;2.38;;
72427;SDS011;60419;48.880;18.036;2022-09-12T19:03:25;5.65;;;2.90;;
72427;SDS011;60419;48.880;18.036;2022-09-12T19:06:11;6.25;;;2.47;;